sensor_id;sensor_type;location;lat;lon;timestamp;temperature;humidity
33207;DHT22;19565;46.602;11.534;2023-04-15T00:01:12;9.00;80.70
33207;DHT22;19565;46.602;11.534;2023-04-15T00:03:45;9.10;82.00
33207;DHT22;19565;46.602;11.534;2023-04-15T00:06:13;9.20;82.70
33207;DHT22;19565;46.602;11.534;2023-04-15T00:08:41;8.80;82.10
33207;DHT22;19565;46.602;11.534;2023-04-15T00:11:09;8.70;82.40
33207;DHT22;19565;46.602;11.534;2023-04-15T00:13:38;8.40;82.20
33207;DHT22;19565;46.602;11.534;2023-04-15T00:16:07;8.60;82.80
33207;DHT22;19565;46.602;11.534;2023-04-15T00:18:37;8.70;84.20
33207;DHT22;19565;46.602;11.534;2023-04-15T00:21:05;8.80;84.90
33207;DHT22;19565;46.602;11.534;2023-04-15T00:23:33;8.90;84.70
33207;DHT22;19565;46.602;11.534;2023-04-15T00:26:02;8.90;84.10
33207;DHT22;19565;46.602;11.534;2023-04-15T00:28:30;8.90;84.80
33207;DHT22;19565;46.602;11.534;2023-04-15T00:30:58;8.90;85.70
33207;DHT22;19565;46.602;11.534;2023-04-15T00:33:26;8.80;85.60
33207;DHT22;19565;46.602;11.534;2023-04-15T00:35:55;8.70;85.10
33207;DHT22;19565;46.602;11.534;2023-04-15T00:38:23;8.70;84.90
33207;DHT22;19565;46.602;11.534;2023-04-15T00:40:51;8.80;85.40
33207;DHT22;19565;46.602;11.534;2023-04-15T00:43:20;8.80;86.20
33207;DHT22;19565;46.602;11.534;2023-04-15T00:45:49;8.70;86.50
33207;DHT22;19565;46.602;11.534;2023-04-15T00:48:19;8.70;86.60
33207;DHT22;19565;46.602;11.534;2023-04-15T00:50:48;8.70;87.10
33207;DHT22;19565;46.602;11.534;2023-04-15T00:53:17;8.70;87.30
33207;DHT22;19565;46.602;11.534;2023-04-15T00:55:45;8.60;86.10
33207;DHT22;19565;46.602;11.534;2023-04-15T00:58:13;8.60;85.70
33207;DHT22;19565;46.602;11.534;2023-04-15T01:00:42;8.50;85.90
33207;DHT22;19565;46.602;11.534;2023-04-15T01:03:10;8.50;87.10
33207;DHT22;19565;46.602;11.534;2023-04-15T01:05:38;8.50;87.50
33207;DHT22;19565;46.602;11.534;2023-04-15T01:08:07;8.40;87.70
33207;DHT22;19565;46.602;11.534;2023-04-15T01:10:37;8.40;88.50
33207;DHT22;19565;46.602;11.534;2023-04-15T01:13:05;8.40;88.70
33207;DHT22;19565;46.602;11.534;2023-04-15T01:15:34;8.40;88.50
33207;DHT22;19565;46.602;11.534;2023-04-15T01:18:03;8.40;88.00
33207;DHT22;19565;46.602;11.534;2023-04-15T01:20:31;8.40;88.40
33207;DHT22;19565;46.602;11.534;2023-04-15T01:23:01;8.30;87.50
33207;DHT22;19565;46.602;11.534;2023-04-15T01:25:32;8.30;87.10
33207;DHT22;19565;46.602;11.534;2023-04-15T01:28:01;8.30;87.30
33207;DHT22;19565;46.602;11.534;2023-04-15T01:30:33;8.30;89.10
33207;DHT22;19565;46.602;11.534;2023-04-15T01:33:01;8.30;89.70
33207;DHT22;19565;46.602;11.534;2023-04-15T01:35:29;8.20;89.60
33207;DHT22;19565;46.602;11.534;2023-04-15T01:38:02;8.20;89.00
33207;DHT22;19565;46.602;11.534;2023-04-15T01:40:33;8.10;88.70
33207;DHT22;19565;46.602;11.534;2023-04-15T01:43:01;8.20;89.20
33207;DHT22;19565;46.602;11.534;2023-04-15T01:45:30;8.20;87.70
33207;DHT22;19565;46.602;11.534;2023-04-15T01:47:58;8.20;87.80
33207;DHT22;19565;46.602;11.534;2023-04-15T01:50:26;8.30;88.50
33207;DHT22;19565;46.602;11.534;2023-04-15T01:52:54;8.30;89.20
33207;DHT22;19565;46.602;11.534;2023-04-15T01:55:22;8.30;89.70
33207;DHT22;19565;46.602;11.534;2023-04-15T01:57:52;8.30;89.50
33207;DHT22;19565;46.602;11.534;2023-04-15T02:00:20;8.20;89.70
33207;DHT22;19565;46.602;11.534;2023-04-15T02:02:48;8.20;90.10
33207;DHT22;19565;46.602;11.534;2023-04-15T02:05:17;8.10;90.30
33207;DHT22;19565;46.602;11.534;2023-04-15T02:07:45;8.00;90.50
33207;DHT22;19565;46.602;11.534;2023-04-15T02:10:13;8.00;90.80
33207;DHT22;19565;46.602;11.534;2023-04-15T02:12:42;7.90;90.90
33207;DHT22;19565;46.602;11.534;2023-04-15T02:15:12;7.90;90.90
33207;DHT22;19565;46.602;11.534;2023-04-15T02:17:40;7.90;90.80
33207;DHT22;19565;46.602;11.534;2023-04-15T02:20:11;7.80;90.60
33207;DHT22;19565;46.602;11.534;2023-04-15T02:22:40;7.80;90.30
33207;DHT22;19565;46.602;11.534;2023-04-15T02:25:08;7.80;90.90
33207;DHT22;19565;46.602;11.534;2023-04-15T02:27:37;7.80;91.00
33207;DHT22;19565;46.602;11.534;2023-04-15T02:30:06;7.80;91.10
33207;DHT22;19565;46.602;11.534;2023-04-15T02:32:36;7.80;90.90
33207;DHT22;19565;46.602;11.534;2023-04-15T02:35:05;7.70;90.80
33207;DHT22;19565;46.602;11.534;2023-04-15T02:37:35;7.70;90.30
33207;DHT22;19565;46.602;11.534;2023-04-15T02:40:08;7.70;90.00
33207;DHT22;19565;46.602;11.534;2023-04-15T02:42:37;7.80;89.90
33207;DHT22;19565;46.602;11.534;2023-04-15T02:45:07;7.80;90.50
33207;DHT22;19565;46.602;11.534;2023-04-15T02:47:37;7.80;90.90
33207;DHT22;19565;46.602;11.534;2023-04-15T02:50:08;7.70;90.70
33207;DHT22;19565;46.602;11.534;2023-04-15T02:52:38;7.70;90.50
33207;DHT22;19565;46.602;11.534;2023-04-15T02:55:08;7.60;90.30
33207;DHT22;19565;46.602;11.534;2023-04-15T02:57:36;7.50;90.40
33207;DHT22;19565;46.602;11.534;2023-04-15T03:00:06;7.60;91.10
33207;DHT22;19565;46.602;11.534;2023-04-15T03:02:37;7.50;91.20
33207;DHT22;19565;46.602;11.534;2023-04-15T03:05:10;7.60;91.00
33207;DHT22;19565;46.602;11.534;2023-04-15T03:07:38;7.60;90.90
33207;DHT22;19565;46.602;11.534;2023-04-15T03:10:07;7.60;90.90
33207;DHT22;19565;46.602;11.534;2023-04-15T03:12:36;7.60;90.70
33207;DHT22;19565;46.602;11.534;2023-04-15T03:15:05;7.60;90.90
33207;DHT22;19565;46.602;11.534;2023-04-15T03:17:33;7.60;90.80
33207;DHT22;19565;46.602;11.534;2023-04-15T03:20:04;7.60;90.70
33207;DHT22;19565;46.602;11.534;2023-04-15T03:22:32;7.50;91.00
33207;DHT22;19565;46.602;11.534;2023-04-15T03:25:01;7.50;91.40
33207;DHT22;19565;46.602;11.534;2023-04-15T03:27:29;7.40;90.90
33207;DHT22;19565;46.602;11.534;2023-04-15T03:29:57;7.40;91.30
33207;DHT22;19565;46.602;11.534;2023-04-15T03:32:25;7.50;91.80
33207;DHT22;19565;46.602;11.534;2023-04-15T03:34:53;7.40;91.50
33207;DHT22;19565;46.602;11.534;2023-04-15T03:37:22;7.40;91.30
33207;DHT22;19565;46.602;11.534;2023-04-15T03:39:51;7.30;91.30
33207;DHT22;19565;46.602;11.534;2023-04-15T03:42:19;7.30;91.40
33207;DHT22;19565;46.602;11.534;2023-04-15T03:44:47;7.30;91.20
33207;DHT22;19565;46.602;11.534;2023-04-15T03:47:15;7.30;91.30
33207;DHT22;19565;46.602;11.534;2023-04-15T03:49:43;7.30;91.30
33207;DHT22;19565;46.602;11.534;2023-04-15T03:52:11;7.30;91.50
33207;DHT22;19565;46.602;11.534;2023-04-15T03:54:40;7.20;91.30
33207;DHT22;19565;46.602;11.534;2023-04-15T03:57:08;7.20;91.30
33207;DHT22;19565;46.602;11.534;2023-04-15T03:59:36;7.20;91.20
33207;DHT22;19565;46.602;11.534;2023-04-15T04:02:04;7.20;91.20
33207;DHT22;19565;46.602;11.534;2023-04-15T04:04:33;7.20;91.50
33207;DHT22;19565;46.602;11.534;2023-04-15T04:07:01;7.20;91.90
33207;DHT22;19565;46.602;11.534;2023-04-15T04:09:29;7.10;91.90
33207;DHT22;19565;46.602;11.534;2023-04-15T04:11:58;7.00;91.20
33207;DHT22;19565;46.602;11.534;2023-04-15T04:14:27;7.10;91.50
33207;DHT22;19565;46.602;11.534;2023-04-15T04:16:55;7.10;91.80
33207;DHT22;19565;46.602;11.534;2023-04-15T04:19:23;7.10;91.70
33207;DHT22;19565;46.602;11.534;2023-04-15T04:21:52;6.70;92.20
33207;DHT22;19565;46.602;11.534;2023-04-15T04:24:20;6.50;92.70
33207;DHT22;19565;46.602;11.534;2023-04-15T04:26:48;6.60;93.00
33207;DHT22;19565;46.602;11.534;2023-04-15T04:29:17;6.80;93.00
33207;DHT22;19565;46.602;11.534;2023-04-15T04:31:45;7.00;93.00
33207;DHT22;19565;46.602;11.534;2023-04-15T04:34:14;7.00;92.60
33207;DHT22;19565;46.602;11.534;2023-04-15T04:36:42;7.10;92.40
33207;DHT22;19565;46.602;11.534;2023-04-15T04:39:10;7.20;92.20
33207;DHT22;19565;46.602;11.534;2023-04-15T04:41:38;7.20;92.00
33207;DHT22;19565;46.602;11.534;2023-04-15T04:44:06;7.30;91.90
33207;DHT22;19565;46.602;11.534;2023-04-15T04:46:36;7.30;92.10
33207;DHT22;19565;46.602;11.534;2023-04-15T04:49:04;7.30;91.90
33207;DHT22;19565;46.602;11.534;2023-04-15T04:51:32;7.30;91.70
33207;DHT22;19565;46.602;11.534;2023-04-15T04:54:00;7.30;91.70
33207;DHT22;19565;46.602;11.534;2023-04-15T04:56:29;7.30;92.10
33207;DHT22;19565;46.602;11.534;2023-04-15T04:58:57;7.30;92.30
33207;DHT22;19565;46.602;11.534;2023-04-15T05:01:26;7.30;91.80
33207;DHT22;19565;46.602;11.534;2023-04-15T05:03:55;7.30;92.10
33207;DHT22;19565;46.602;11.534;2023-04-15T05:06:23;7.30;93.00
33207;DHT22;19565;46.602;11.534;2023-04-15T05:08:51;7.30;92.80
33207;DHT22;19565;46.602;11.534;2023-04-15T05:11:19;7.20;92.80
33207;DHT22;19565;46.602;11.534;2023-04-15T05:13:47;7.20;92.70
33207;DHT22;19565;46.602;11.534;2023-04-15T05:16:15;7.20;92.90
33207;DHT22;19565;46.602;11.534;2023-04-15T05:18:44;7.20;92.20
33207;DHT22;19565;46.602;11.534;2023-04-15T05:21:13;7.30;92.20
33207;DHT22;19565;46.602;11.534;2023-04-15T05:23:41;7.30;92.60
33207;DHT22;19565;46.602;11.534;2023-04-15T05:26:09;7.30;92.30
33207;DHT22;19565;46.602;11.534;2023-04-15T05:28:37;7.30;92.60
33207;DHT22;19565;46.602;11.534;2023-04-15T05:31:05;7.30;92.60
33207;DHT22;19565;46.602;11.534;2023-04-15T05:33:34;7.40;93.00
33207;DHT22;19565;46.602;11.534;2023-04-15T05:36:02;7.40;93.10
33207;DHT22;19565;46.602;11.534;2023-04-15T05:38:32;7.40;93.20
33207;DHT22;19565;46.602;11.534;2023-04-15T05:41:02;7.40;93.00
33207;DHT22;19565;46.602;11.534;2023-04-15T05:43:30;7.20;92.30
33207;DHT22;19565;46.602;11.534;2023-04-15T05:45:58;7.00;92.50
33207;DHT22;19565;46.602;11.534;2023-04-15T05:48:26;7.20;92.60
33207;DHT22;19565;46.602;11.534;2023-04-15T05:50:54;7.30;92.80
33207;DHT22;19565;46.602;11.534;2023-04-15T05:53:22;7.40;92.60
33207;DHT22;19565;46.602;11.534;2023-04-15T05:55:51;7.50;92.60
33207;DHT22;19565;46.602;11.534;2023-04-15T05:58:19;7.60;92.90
33207;DHT22;19565;46.602;11.534;2023-04-15T06:00:47;7.60;92.40
33207;DHT22;19565;46.602;11.534;2023-04-15T06:03:15;7.50;91.80
33207;DHT22;19565;46.602;11.534;2023-04-15T06:05:44;7.50;91.70
33207;DHT22;19565;46.602;11.534;2023-04-15T06:08:11;7.60;91.80
33207;DHT22;19565;46.602;11.534;2023-04-15T06:10:39;7.60;91.30
33207;DHT22;19565;46.602;11.534;2023-04-15T06:13:09;7.60;91.50
33207;DHT22;19565;46.602;11.534;2023-04-15T06:15:37;7.70;91.70
33207;DHT22;19565;46.602;11.534;2023-04-15T06:18:05;7.80;92.00
33207;DHT22;19565;46.602;11.534;2023-04-15T06:20:33;7.80;91.40
33207;DHT22;19565;46.602;11.534;2023-04-15T06:23:02;7.90;91.30
33207;DHT22;19565;46.602;11.534;2023-04-15T06:25:30;7.90;91.30
33207;DHT22;19565;46.602;11.534;2023-04-15T06:27:58;8.00;91.30
33207;DHT22;19565;46.602;11.534;2023-04-15T06:30:27;8.10;91.30
33207;DHT22;19565;46.602;11.534;2023-04-15T06:32:55;8.20;91.40
33207;DHT22;19565;46.602;11.534;2023-04-15T06:35:24;8.20;91.60
33207;DHT22;19565;46.602;11.534;2023-04-15T06:37:53;8.10;91.40
33207;DHT22;19565;46.602;11.534;2023-04-15T06:40:21;8.20;91.20
33207;DHT22;19565;46.602;11.534;2023-04-15T06:42:49;8.30;91.10
33207;DHT22;19565;46.602;11.534;2023-04-15T06:45:17;8.30;90.70
33207;DHT22;19565;46.602;11.534;2023-04-15T06:47:46;8.20;90.40
33207;DHT22;19565;46.602;11.534;2023-04-15T06:50:14;8.00;90.50
33207;DHT22;19565;46.602;11.534;2023-04-15T06:52:42;7.90;90.70
33207;DHT22;19565;46.602;11.534;2023-04-15T06:55:10;7.90;90.70
33207;DHT22;19565;46.602;11.534;2023-04-15T06:57:40;7.80;91.00
33207;DHT22;19565;46.602;11.534;2023-04-15T07:00:10;7.90;91.00
33207;DHT22;19565;46.602;11.534;2023-04-15T07:02:38;7.90;91.00
33207;DHT22;19565;46.602;11.534;2023-04-15T07:05:08;7.80;90.90
33207;DHT22;19565;46.602;11.534;2023-04-15T07:07:36;8.00;91.00
33207;DHT22;19565;46.602;11.534;2023-04-15T07:10:05;8.10;90.70
33207;DHT22;19565;46.602;11.534;2023-04-15T07:12:33;8.20;90.40
33207;DHT22;19565;46.602;11.534;2023-04-15T07:15:02;8.20;90.30
33207;DHT22;19565;46.602;11.534;2023-04-15T07:17:30;8.30;90.30
33207;DHT22;19565;46.602;11.534;2023-04-15T07:19:58;8.50;90.20
33207;DHT22;19565;46.602;11.534;2023-04-15T07:22:28;8.40;90.20
33207;DHT22;19565;46.602;11.534;2023-04-15T07:24:56;8.50;90.00
33207;DHT22;19565;46.602;11.534;2023-04-15T07:27:24;8.60;90.00
33207;DHT22;19565;46.602;11.534;2023-04-15T07:29:52;8.60;88.80
33207;DHT22;19565;46.602;11.534;2023-04-15T07:32:20;8.70;88.70
33207;DHT22;19565;46.602;11.534;2023-04-15T07:34:48;8.80;88.50
33207;DHT22;19565;46.602;11.534;2023-04-15T07:37:16;8.60;88.20
33207;DHT22;19565;46.602;11.534;2023-04-15T07:39:46;8.60;88.30
33207;DHT22;19565;46.602;11.534;2023-04-15T07:42:14;8.60;88.10
33207;DHT22;19565;46.602;11.534;2023-04-15T07:44:43;8.80;88.00
33207;DHT22;19565;46.602;11.534;2023-04-15T07:47:11;8.90;87.60
33207;DHT22;19565;46.602;11.534;2023-04-15T07:49:40;8.80;86.30
33207;DHT22;19565;46.602;11.534;2023-04-15T07:52:09;8.80;86.70
33207;DHT22;19565;46.602;11.534;2023-04-15T07:54:37;8.90;86.70
33207;DHT22;19565;46.602;11.534;2023-04-15T07:57:06;9.10;86.20
33207;DHT22;19565;46.602;11.534;2023-04-15T07:59:34;8.90;85.50
33207;DHT22;19565;46.602;11.534;2023-04-15T08:02:02;8.90;85.50
33207;DHT22;19565;46.602;11.534;2023-04-15T08:04:31;8.80;86.10
33207;DHT22;19565;46.602;11.534;2023-04-15T08:06:59;8.80;86.10
33207;DHT22;19565;46.602;11.534;2023-04-15T08:09:27;8.70;85.70
33207;DHT22;19565;46.602;11.534;2023-04-15T08:11:56;8.70;85.00
33207;DHT22;19565;46.602;11.534;2023-04-15T08:14:25;8.70;84.70
33207;DHT22;19565;46.602;11.534;2023-04-15T08:16:53;8.80;84.80
33207;DHT22;19565;46.602;11.534;2023-04-15T08:19:21;8.80;85.20
33207;DHT22;19565;46.602;11.534;2023-04-15T08:21:50;8.80;85.50
33207;DHT22;19565;46.602;11.534;2023-04-15T08:24:18;8.90;85.70
33207;DHT22;19565;46.602;11.534;2023-04-15T08:26:47;9.10;85.70
33207;DHT22;19565;46.602;11.534;2023-04-15T08:29:14;9.20;84.50
33207;DHT22;19565;46.602;11.534;2023-04-15T08:31:44;9.20;84.60
33207;DHT22;19565;46.602;11.534;2023-04-15T08:34:13;9.20;83.80
33207;DHT22;19565;46.602;11.534;2023-04-15T08:36:42;9.30;84.10
33207;DHT22;19565;46.602;11.534;2023-04-15T08:39:10;9.20;83.80
33207;DHT22;19565;46.602;11.534;2023-04-15T08:41:43;9.30;83.90
33207;DHT22;19565;46.602;11.534;2023-04-15T08:44:13;9.20;84.00
33207;DHT22;19565;46.602;11.534;2023-04-15T08:46:41;9.20;83.90
33207;DHT22;19565;46.602;11.534;2023-04-15T08:49:12;9.30;84.30
33207;DHT22;19565;46.602;11.534;2023-04-15T08:51:40;9.30;85.10
33207;DHT22;19565;46.602;11.534;2023-04-15T08:54:08;9.30;84.60
33207;DHT22;19565;46.602;11.534;2023-04-15T08:56:38;9.40;83.70
33207;DHT22;19565;46.602;11.534;2023-04-15T08:59:06;9.40;82.80
33207;DHT22;19565;46.602;11.534;2023-04-15T09:01:36;9.50;82.30
33207;DHT22;19565;46.602;11.534;2023-04-15T09:04:05;9.50;82.50
33207;DHT22;19565;46.602;11.534;2023-04-15T09:06:35;9.60;82.20
33207;DHT22;19565;46.602;11.534;2023-04-15T09:09:03;9.60;82.10
33207;DHT22;19565;46.602;11.534;2023-04-15T09:11:31;9.80;81.90
33207;DHT22;19565;46.602;11.534;2023-04-15T09:13:59;9.90;81.40
33207;DHT22;19565;46.602;11.534;2023-04-15T09:16:27;10.10;81.20
33207;DHT22;19565;46.602;11.534;2023-04-15T09:18:55;10.20;79.90
33207;DHT22;19565;46.602;11.534;2023-04-15T09:21:23;10.40;78.70
33207;DHT22;19565;46.602;11.534;2023-04-15T09:23:57;10.40;78.00
33207;DHT22;19565;46.602;11.534;2023-04-15T09:26:33;10.50;77.60
33207;DHT22;19565;46.602;11.534;2023-04-15T09:29:04;10.50;77.30
33207;DHT22;19565;46.602;11.534;2023-04-15T09:31:33;10.60;76.50
33207;DHT22;19565;46.602;11.534;2023-04-15T09:34:02;10.70;76.10
33207;DHT22;19565;46.602;11.534;2023-04-15T09:36:39;10.80;75.20
33207;DHT22;19565;46.602;11.534;2023-04-15T09:39:19;10.90;75.00
33207;DHT22;19565;46.602;11.534;2023-04-15T09:42:03;10.90;73.50
33207;DHT22;19565;46.602;11.534;2023-04-15T09:44:32;11.00;74.20
33207;DHT22;19565;46.602;11.534;2023-04-15T09:47:00;11.10;74.40
33207;DHT22;19565;46.602;11.534;2023-04-15T09:49:28;11.20;73.50
33207;DHT22;19565;46.602;11.534;2023-04-15T09:52:00;11.20;73.50
33207;DHT22;19565;46.602;11.534;2023-04-15T09:54:35;11.30;74.00
33207;DHT22;19565;46.602;11.534;2023-04-15T09:57:07;11.30;72.30
33207;DHT22;19565;46.602;11.534;2023-04-15T09:59:36;11.30;71.00
33207;DHT22;19565;46.602;11.534;2023-04-15T10:02:04;11.30;70.40
33207;DHT22;19565;46.602;11.534;2023-04-15T10:04:35;11.40;70.00
33207;DHT22;19565;46.602;11.534;2023-04-15T10:07:05;11.50;70.50
33207;DHT22;19565;46.602;11.534;2023-04-15T10:09:37;11.50;69.20
33207;DHT22;19565;46.602;11.534;2023-04-15T10:12:06;11.60;69.30
33207;DHT22;19565;46.602;11.534;2023-04-15T10:14:34;11.70;67.70
33207;DHT22;19565;46.602;11.534;2023-04-15T10:17:05;11.80;68.70
33207;DHT22;19565;46.602;11.534;2023-04-15T10:19:36;11.90;68.90
33207;DHT22;19565;46.602;11.534;2023-04-15T10:22:05;11.90;67.20
33207;DHT22;19565;46.602;11.534;2023-04-15T10:24:33;12.10;65.30
33207;DHT22;19565;46.602;11.534;2023-04-15T10:27:04;12.20;62.40
33207;DHT22;19565;46.602;11.534;2023-04-15T10:29:33;12.20;61.40
33207;DHT22;19565;46.602;11.534;2023-04-15T10:32:02;12.30;58.30
33207;DHT22;19565;46.602;11.534;2023-04-15T10:34:30;12.40;57.70
33207;DHT22;19565;46.602;11.534;2023-04-15T10:37:00;12.50;56.20
33207;DHT22;19565;46.602;11.534;2023-04-15T10:39:42;12.60;55.90
33207;DHT22;19565;46.602;11.534;2023-04-15T10:42:13;12.70;55.00
33207;DHT22;19565;46.602;11.534;2023-04-15T10:44:43;12.90;53.40
33207;DHT22;19565;46.602;11.534;2023-04-15T10:47:15;12.90;52.10
33207;DHT22;19565;46.602;11.534;2023-04-15T10:49:46;13.00;52.20
33207;DHT22;19565;46.602;11.534;2023-04-15T10:52:16;13.00;51.60
33207;DHT22;19565;46.602;11.534;2023-04-15T10:54:44;13.00;51.10
33207;DHT22;19565;46.602;11.534;2023-04-15T10:57:20;13.00;51.20
33207;DHT22;19565;46.602;11.534;2023-04-15T10:59:59;13.00;49.00
33207;DHT22;19565;46.602;11.534;2023-04-15T11:02:41;13.10;50.10
33207;DHT22;19565;46.602;11.534;2023-04-15T11:05:10;13.20;50.70
33207;DHT22;19565;46.602;11.534;2023-04-15T11:07:40;13.30;49.00
33207;DHT22;19565;46.602;11.534;2023-04-15T11:13:17;13.30;48.30
33207;DHT22;19565;46.602;11.534;2023-04-15T11:15:48;13.40;47.20
33207;DHT22;19565;46.602;11.534;2023-04-15T11:18:17;13.40;46.00
33207;DHT22;19565;46.602;11.534;2023-04-15T11:20:47;13.40;46.20
33207;DHT22;19565;46.602;11.534;2023-04-15T11:23:17;13.40;46.70
33207;DHT22;19565;46.602;11.534;2023-04-15T11:25:45;13.50;44.90
33207;DHT22;19565;46.602;11.534;2023-04-15T11:28:15;13.60;46.60
33207;DHT22;19565;46.602;11.534;2023-04-15T11:30:46;13.60;46.30
33207;DHT22;19565;46.602;11.534;2023-04-15T11:33:13;13.60;45.60
33207;DHT22;19565;46.602;11.534;2023-04-15T11:35:41;13.60;46.20
33207;DHT22;19565;46.602;11.534;2023-04-15T11:38:11;13.70;45.60
33207;DHT22;19565;46.602;11.534;2023-04-15T11:40:40;13.70;45.40
33207;DHT22;19565;46.602;11.534;2023-04-15T11:43:15;13.70;45.60
33207;DHT22;19565;46.602;11.534;2023-04-15T11:45:49;13.70;46.10
33207;DHT22;19565;46.602;11.534;2023-04-15T11:48:19;13.80;46.80
33207;DHT22;19565;46.602;11.534;2023-04-15T11:50:52;13.80;45.70
33207;DHT22;19565;46.602;11.534;2023-04-15T11:53:21;13.80;46.40
33207;DHT22;19565;46.602;11.534;2023-04-15T11:55:52;13.80;44.80
33207;DHT22;19565;46.602;11.534;2023-04-15T11:58:23;13.70;45.50
33207;DHT22;19565;46.602;11.534;2023-04-15T12:00:53;13.70;45.60
33207;DHT22;19565;46.602;11.534;2023-04-15T12:03:23;13.70;44.80
33207;DHT22;19565;46.602;11.534;2023-04-15T12:06:12;13.70;45.30
33207;DHT22;19565;46.602;11.534;2023-04-15T12:08:56;13.80;45.50
33207;DHT22;19565;46.602;11.534;2023-04-15T12:11:34;13.80;45.90
33207;DHT22;19565;46.602;11.534;2023-04-15T12:14:06;13.80;45.30
33207;DHT22;19565;46.602;11.534;2023-04-15T12:16:37;13.80;46.20
33207;DHT22;19565;46.602;11.534;2023-04-15T12:19:16;13.80;45.30
33207;DHT22;19565;46.602;11.534;2023-04-15T12:21:46;13.80;44.40
33207;DHT22;19565;46.602;11.534;2023-04-15T12:24:14;13.70;44.10
33207;DHT22;19565;46.602;11.534;2023-04-15T12:26:48;13.70;44.90
33207;DHT22;19565;46.602;11.534;2023-04-15T12:29:18;13.80;45.00
33207;DHT22;19565;46.602;11.534;2023-04-15T12:31:48;13.80;44.80
33207;DHT22;19565;46.602;11.534;2023-04-15T12:34:18;13.80;44.50
33207;DHT22;19565;46.602;11.534;2023-04-15T12:36:52;13.90;45.70
33207;DHT22;19565;46.602;11.534;2023-04-15T12:39:21;13.90;45.80
33207;DHT22;19565;46.602;11.534;2023-04-15T12:41:50;13.90;44.90
33207;DHT22;19565;46.602;11.534;2023-04-15T12:44:21;14.00;44.90
33207;DHT22;19565;46.602;11.534;2023-04-15T12:46:50;13.90;45.30
33207;DHT22;19565;46.602;11.534;2023-04-15T12:49:19;13.90;44.80
33207;DHT22;19565;46.602;11.534;2023-04-15T12:51:48;13.90;43.30
33207;DHT22;19565;46.602;11.534;2023-04-15T12:54:17;13.90;43.20
33207;DHT22;19565;46.602;11.534;2023-04-15T12:56:45;14.00;44.50
33207;DHT22;19565;46.602;11.534;2023-04-15T12:59:14;14.00;43.80
33207;DHT22;19565;46.602;11.534;2023-04-15T13:01:44;14.10;44.30
33207;DHT22;19565;46.602;11.534;2023-04-15T13:04:12;14.10;45.20
33207;DHT22;19565;46.602;11.534;2023-04-15T13:06:40;14.10;44.10
33207;DHT22;19565;46.602;11.534;2023-04-15T13:09:08;14.10;43.00
33207;DHT22;19565;46.602;11.534;2023-04-15T13:11:37;14.10;43.20
33207;DHT22;19565;46.602;11.534;2023-04-15T13:14:06;14.20;44.60
33207;DHT22;19565;46.602;11.534;2023-04-15T13:16:34;14.20;44.30
33207;DHT22;19565;46.602;11.534;2023-04-15T13:19:04;14.30;44.00
33207;DHT22;19565;46.602;11.534;2023-04-15T13:21:32;14.30;44.70
33207;DHT22;19565;46.602;11.534;2023-04-15T13:24:02;14.30;45.20
33207;DHT22;19565;46.602;11.534;2023-04-15T13:26:33;14.20;45.20
33207;DHT22;19565;46.602;11.534;2023-04-15T13:29:01;14.10;44.80
33207;DHT22;19565;46.602;11.534;2023-04-15T13:31:29;14.10;44.40
33207;DHT22;19565;46.602;11.534;2023-04-15T13:33:57;14.00;45.00
33207;DHT22;19565;46.602;11.534;2023-04-15T13:36:27;14.00;45.10
33207;DHT22;19565;46.602;11.534;2023-04-15T13:38:55;14.00;45.10
33207;DHT22;19565;46.602;11.534;2023-04-15T13:41:23;14.00;45.30
33207;DHT22;19565;46.602;11.534;2023-04-15T13:43:51;14.00;45.50
33207;DHT22;19565;46.602;11.534;2023-04-15T13:46:19;14.00;45.80
33207;DHT22;19565;46.602;11.534;2023-04-15T13:48:48;14.10;45.50
33207;DHT22;19565;46.602;11.534;2023-04-15T13:51:16;14.10;44.80
33207;DHT22;19565;46.602;11.534;2023-04-15T13:53:45;14.20;45.50
33207;DHT22;19565;46.602;11.534;2023-04-15T13:56:13;14.20;46.60
33207;DHT22;19565;46.602;11.534;2023-04-15T13:58:41;14.30;45.60
33207;DHT22;19565;46.602;11.534;2023-04-15T14:01:09;14.30;46.40
33207;DHT22;19565;46.602;11.534;2023-04-15T14:03:37;14.30;47.10
33207;DHT22;19565;46.602;11.534;2023-04-15T14:06:06;14.20;46.90
33207;DHT22;19565;46.602;11.534;2023-04-15T14:08:34;14.10;47.50
33207;DHT22;19565;46.602;11.534;2023-04-15T14:11:03;14.10;47.60
33207;DHT22;19565;46.602;11.534;2023-04-15T14:13:31;14.10;47.50
33207;DHT22;19565;46.602;11.534;2023-04-15T14:15:59;14.10;47.10
33207;DHT22;19565;46.602;11.534;2023-04-15T14:18:27;14.10;47.30
33207;DHT22;19565;46.602;11.534;2023-04-15T14:20:56;14.00;47.10
33207;DHT22;19565;46.602;11.534;2023-04-15T14:23:24;14.00;46.80
33207;DHT22;19565;46.602;11.534;2023-04-15T14:25:52;14.00;46.90
33207;DHT22;19565;46.602;11.534;2023-04-15T14:28:22;14.00;47.60
33207;DHT22;19565;46.602;11.534;2023-04-15T14:30:50;14.10;47.50
33207;DHT22;19565;46.602;11.534;2023-04-15T14:33:19;14.10;47.50
33207;DHT22;19565;46.602;11.534;2023-04-15T14:35:48;14.10;47.20
33207;DHT22;19565;46.602;11.534;2023-04-15T14:38:16;14.10;47.40
33207;DHT22;19565;46.602;11.534;2023-04-15T14:40:44;14.10;47.00
33207;DHT22;19565;46.602;11.534;2023-04-15T14:43:12;14.20;46.80
33207;DHT22;19565;46.602;11.534;2023-04-15T14:45:41;14.30;46.90
33207;DHT22;19565;46.602;11.534;2023-04-15T14:48:11;14.30;47.20
33207;DHT22;19565;46.602;11.534;2023-04-15T14:50:39;14.40;47.70
33207;DHT22;19565;46.602;11.534;2023-04-15T14:53:08;14.50;48.80
33207;DHT22;19565;46.602;11.534;2023-04-15T14:55:36;14.50;48.30
33207;DHT22;19565;46.602;11.534;2023-04-15T14:58:05;14.60;44.80
33207;DHT22;19565;46.602;11.534;2023-04-15T15:00:34;14.70;44.70
33207;DHT22;19565;46.602;11.534;2023-04-15T15:03:06;14.70;45.80
33207;DHT22;19565;46.602;11.534;2023-04-15T15:05:38;14.80;45.40
33207;DHT22;19565;46.602;11.534;2023-04-15T15:08:07;15.00;45.40
33207;DHT22;19565;46.602;11.534;2023-04-15T15:10:37;15.20;45.90
33207;DHT22;19565;46.602;11.534;2023-04-15T15:13:16;15.40;46.10
33207;DHT22;19565;46.602;11.534;2023-04-15T15:15:44;15.70;45.70
33207;DHT22;19565;46.602;11.534;2023-04-15T15:18:16;16.10;43.70
33207;DHT22;19565;46.602;11.534;2023-04-15T15:20:45;16.40;43.60
33207;DHT22;19565;46.602;11.534;2023-04-15T15:23:13;16.70;43.80
33207;DHT22;19565;46.602;11.534;2023-04-15T15:25:42;16.90;42.50
33207;DHT22;19565;46.602;11.534;2023-04-15T15:28:10;16.80;41.90
33207;DHT22;19565;46.602;11.534;2023-04-15T15:30:38;16.50;42.70
33207;DHT22;19565;46.602;11.534;2023-04-15T15:33:06;16.20;43.40
33207;DHT22;19565;46.602;11.534;2023-04-15T15:35:36;15.90;42.60
33207;DHT22;19565;46.602;11.534;2023-04-15T15:38:04;15.70;43.10
33207;DHT22;19565;46.602;11.534;2023-04-15T15:40:32;15.50;42.80